Time;durP1;ratioP1;P1;durP2;ratioP2;P2;SDS_P1;SDS_P2;PMS_P1;PMS_P2;Temp;Humidity;BMP_temperature;BMP_pressure;BME280_temperature;BME280_humidity;BME280_pressure;Samples;Min_cycle;Max_cycle;Signal;HPM_P1;HPM_P2
2020/12/02 00:01:17;;;;;;;36.45;22.98;;;;;;;;;;5118676;27;20110;-64
2020/12/02 00:04:09;;;;;;;35.08;24.67;;;;;;;;;;5114836;27;20126;-63
2020/12/02 00:06:55;;;;;;;42.55;24.27;;;;;;;;;;5117327;27;20110;-63
2020/12/02 00:09:40;;;;;;;36.72;23.88;;;;;;;;;;5115695;27;20044;-63
2020/12/02 00:12:28;;;;;;;36.05;23.08;;;;;;;;;;5116649;27;20126;-63
2020/12/02 00:15:14;;;;;;;33.65;23.40;;;;;;;;;;5114276;27;20464;-63
2020/12/02 00:18:00;;;;;;;35.85;23.35;;;;;;;;;;5118287;27;20118;-63
2020/12/02 00:20:45;;;;;;;38.85;22.92;;;;;;;;;;5118399;27;20051;-63
2020/12/02 00:23:32;;;;;;;32.15;22.05;;;;;;;;;;5115849;27;20039;-62
2020/12/02 00:26:19;;;;;;;31.80;22.27;;;;;;;;;;5118041;27;20060;-63
2020/12/02 00:29:05;;;;;;;30.63;21.50;;;;;;;;;;5116935;27;20031;-63
2020/12/02 00:31:50;;;;;;;31.70;22.60;;;;;;;;;;5100961;27;20046;-63
2020/12/02 00:34:36;;;;;;;32.22;21.92;;;;;;;;;;5115650;27;20034;-63
2020/12/02 00:37:23;;;;;;;36.80;22.92;;;;;;;;;;5118117;27;20031;-63
2020/12/02 00:40:10;;;;;;;29.90;20.92;;;;;;;;;;5112281;27;20055;-63
2020/12/02 00:42:56;;;;;;;32.05;22.02;;;;;;;;;;5118194;27;20042;-63
2020/12/02 00:45:43;;;;;;;30.95;21.55;;;;;;;;;;5114968;27;20027;-63
2020/12/02 00:48:31;;;;;;;31.70;20.70;;;;;;;;;;5114774;27;20350;-63
2020/12/02 00:51:18;;;;;;;35.63;22.63;;;;;;;;;;5117562;27;20519;-63
2020/12/02 00:54:03;;;;;;;32.45;21.83;;;;;;;;;;5115885;27;20039;-63
2020/12/02 00:56:49;;;;;;;36.38;23.30;;;;;;;;;;5114103;27;20122;-63
2020/12/02 00:59:38;;;;;;;34.40;22.27;;;;;;;;;;5115793;27;20035;-63
2020/12/02 01:02:39;;;;;;;35.22;19.92;;;;;;;;;;5118449;27;20055;-63
2020/12/02 01:05:26;;;;;;;34.55;20.75;;;;;;;;;;5115905;27;20049;-63
2020/12/02 01:08:17;;;;;;;32.85;19.83;;;;;;;;;;5105546;27;20403;-63
2020/12/02 01:11:12;;;;;;;31.98;21.30;;;;;;;;;;5117951;27;20043;-63
2020/12/02 01:14:02;;;;;;;31.60;19.90;;;;;;;;;;5113544;27;20616;-63
2020/12/02 01:16:51;;;;;;;31.25;21.13;;;;;;;;;;5118615;27;20046;-63
2020/12/02 01:19:38;;;;;;;25.48;18.98;;;;;;;;;;5114705;27;20043;-63
2020/12/02 01:22:32;;;;;;;27.30;19.60;;;;;;;;;;5100764;27;20024;-63
2020/12/02 01:25:22;;;;;;;31.25;21.73;;;;;;;;;;5114955;27;20151;-63
2020/12/02 01:28:14;;;;;;;34.22;21.45;;;;;;;;;;5118210;27;20065;-63
2020/12/02 01:30:59;;;;;;;;;;;;;;;;;;5116932;27;20528;-63
2020/12/02 01:33:45;;;;;;;25.70;18.48;;;;;;;;;;5116392;27;19922;-63
2020/12/02 01:37:01;;;;;;;29.58;19.33;;;;;;;;;;5114046;27;20162;-63
2020/12/02 01:40:23;;;;;;;27.50;19.80;;;;;;;;;;5114724;27;20078;-63
2020/12/02 01:43:11;;;;;;;29.73;20.63;;;;;;;;;;5089998;27;20047;-63
2020/12/02 01:46:10;;;;;;;27.45;20.83;;;;;;;;;;5115344;27;20119;-63
2020/12/02 01:49:08;;;;;;;31.25;21.58;;;;;;;;;;5115365;27;20031;-63
2020/12/02 01:52:32;;;;;;;26.45;19.30;;;;;;;;;;5113390;27;20044;-63
2020/12/02 01:55:26;;;;;;;30.63;20.35;;;;;;;;;;5115244;27;20031;-63
2020/12/02 01:58:18;;;;;;;31.35;19.48;;;;;;;;;;5113674;27;20027;-63
2020/12/02 02:01:14;;;;;;;27.50;19.67;;;;;;;;;;5117288;27;20129;-63
2020/12/02 02:04:02;;;;;;;27.98;20.25;;;;;;;;;;5115421;27;20118;-64
2020/12/02 02:06:59;;;;;;;32.17;20.05;;;;;;;;;;5117556;27;20136;-63
2020/12/02 02:09:59;;;;;;;28.08;19.95;;;;;;;;;;5112265;27;20096;-63
2020/12/02 02:13:29;;;;;;;29.60;20.63;;;;;;;;;;5117440;27;20551;-63
2020/12/02 02:16:23;;;;;;;27.48;19.90;;;;;;;;;;5098137;27;20073;-63
2020/12/02 02:19:22;;;;;;;27.45;19.70;;;;;;;;;;5114059;27;20656;-63
2020/12/02 02:22:07;;;;;;;30.67;21.20;;;;;;;;;;5114633;27;20039;-64
2020/12/02 02:24:55;;;;;;;29.13;20.83;;;;;;;;;;5110319;27;20420;-64
2020/12/02 02:27:42;;;;;;;32.92;20.60;;;;;;;;;;5102041;27;20019;-63
2020/12/02 02:30:28;;;;;;;37.65;21.20;;;;;;;;;;5112892;27;20065;-63
2020/12/02 02:33:14;;;;;;;29.50;21.20;;;;;;;;;;5116044;27;20108;-63
2020/12/02 02:36:00;;;;;;;30.33;20.60;;;;;;;;;;5115811;27;20041;-64
2020/12/02 02:38:46;;;;;;;25.35;19.90;;;;;;;;;;5113636;27;20075;-64
2020/12/02 02:41:33;;;;;;;33.00;21.10;;;;;;;;;;5113462;28;20637;-64
2020/12/02 02:44:18;;;;;;;29.00;20.40;;;;;;;;;;5112947;28;20047;-64
2020/12/02 02:47:04;;;;;;;29.17;21.67;;;;;;;;;;5115510;28;20027;-64
2020/12/02 02:49:50;;;;;;;28.77;21.38;;;;;;;;;;5114980;28;20028;-64
2020/12/02 02:52:36;;;;;;;29.88;21.67;;;;;;;;;;5112628;28;20031;-64
2020/12/02 02:55:24;;;;;;;29.77;19.80;;;;;;;;;;5112240;28;20181;-64
2020/12/02 02:58:10;;;;;;;32.47;19.95;;;;;;;;;;5114564;28;20096;-64
2020/12/02 03:00:58;;;;;;;26.88;19.80;;;;;;;;;;5114354;27;20467;-64
2020/12/02 03:03:44;;;;;;;29.75;20.92;;;;;;;;;;5111887;28;20069;-64
2020/12/02 03:06:30;;;;;;;27.45;19.90;;;;;;;;;;5116415;28;20038;-64
2020/12/02 03:09:16;;;;;;;26.75;20.38;;;;;;;;;;5112110;28;20031;-64
2020/12/02 03:12:02;;;;;;;38.63;19.85;;;;;;;;;;5115835;28;20035;-64
2020/12/02 03:14:48;;;;;;;30.45;20.23;;;;;;;;;;5114256;28;20381;-64
2020/12/02 03:17:33;;;;;;;28.27;20.40;;;;;;;;;;5115570;28;20032;-64
2020/12/02 03:20:31;;;;;;;30.20;20.23;;;;;;;;;;5111957;28;20032;-64
2020/12/02 03:23:18;;;;;;;27.85;20.27;;;;;;;;;;5115594;28;20540;-64
2020/12/02 03:26:04;;;;;;;27.48;20.77;;;;;;;;;;5112572;28;20040;-64
2020/12/02 03:28:50;;;;;;;25.80;18.73;;;;;;;;;;5096716;27;20084;-64
2020/12/02 03:31:36;;;;;;;27.27;20.55;;;;;;;;;;5116273;28;20058;-64
2020/12/02 03:34:22;;;;;;;33.95;22.50;;;;;;;;;;5111193;28;20039;-64
2020/12/02 03:37:08;;;;;;;28.08;21.10;;;;;;;;;;5111779;27;20089;-64
2020/12/02 03:39:53;;;;;;;29.05;20.85;;;;;;;;;;5116566;27;20058;-64
2020/12/02 03:42:40;;;;;;;34.63;21.85;;;;;;;;;;5117632;27;20492;-64
2020/12/02 03:45:26;;;;;;;29.42;20.60;;;;;;;;;;5116376;27;20046;-64
2020/12/02 03:48:14;;;;;;;27.95;20.45;;;;;;;;;;5118789;27;20024;-65
2020/12/02 03:51:00;;;;;;;30.42;21.33;;;;;;;;;;5114309;27;20046;-64
2020/12/02 03:53:46;;;;;;;28.80;19.10;;;;;;;;;;5119114;27;20812;-65
2020/12/02 03:56:32;;;;;;;33.35;22.50;;;;;;;;;;5119290;27;20534;-65
2020/12/02 03:59:17;;;;;;;29.52;20.70;;;;;;;;;;5117324;27;20058;-65
2020/12/02 04:02:03;;;;;;;28.15;20.20;;;;;;;;;;5117529;27;20084;-65
2020/12/02 04:04:49;;;;;;;28.05;21.23;;;;;;;;;;5118005;27;20112;-65
2020/12/02 04:07:34;;;;;;;27.70;20.00;;;;;;;;;;5115084;27;20080;-65
2020/12/02 04:10:21;;;;;;;30.02;21.58;;;;;;;;;;5115284;27;20470;-65
2020/12/02 04:13:07;;;;;;;27.13;20.90;;;;;;;;;;5120392;27;20048;-65
2020/12/02 04:15:52;;;;;;;28.80;19.73;;;;;;;;;;5118081;27;20677;-65
2020/12/02 04:18:38;;;;;;;32.33;19.90;;;;;;;;;;5117559;27;20120;-65
2020/12/02 04:21:24;;;;;;;30.70;20.58;;;;;;;;;;5116376;27;20039;-65
2020/12/02 04:24:10;;;;;;;28.20;20.95;;;;;;;;;;5116180;27;20058;-65
2020/12/02 04:26:55;;;;;;;28.17;19.63;;;;;;;;;;5117973;27;20434;-65
2020/12/02 04:29:42;;;;;;;30.10;20.80;;;;;;;;;;5114994;27;20597;-65
2020/12/02 04:32:28;;;;;;;32.53;21.05;;;;;;;;;;5115078;27;20043;-65
2020/12/02 04:35:15;;;;;;;28.00;20.95;;;;;;;;;;5117226;27;20472;-65
2020/12/02 04:38:00;;;;;;;29.48;20.42;;;;;;;;;;5106199;27;20032;-65
2020/12/02 04:40:46;;;;;;;26.00;19.95;;;;;;;;;;5116332;27;20371;-65
2020/12/02 04:43:36;;;;;;;28.50;20.08;;;;;;;;;;5111686;27;20160;-65
2020/12/02 04:46:31;;;;;;;28.40;19.85;;;;;;;;;;5115420;27;20043;-65
2020/12/02 04:49:29;;;;;;;27.48;20.48;;;;;;;;;;5104754;27;20042;-65
2020/12/02 04:52:15;;;;;;;29.15;21.20;;;;;;;;;;5116242;27;20039;-65
2020/12/02 04:55:00;;;;;;;29.08;20.40;;;;;;;;;;5116591;27;20038;-64
2020/12/02 04:57:46;;;;;;;27.35;20.70;;;;;;;;;;5119749;27;20043;-64
2020/12/02 05:00:33;;;;;;;29.20;21.55;;;;;;;;;;5114784;27;20122;-65
2020/12/02 05:03:19;;;;;;;27.92;20.52;;;;;;;;;;5114420;27;20035;-65
2020/12/02 05:06:05;;;;;;;26.45;20.70;;;;;;;;;;5116171;27;20028;-65
2020/12/02 05:08:51;;;;;;;28.33;21.45;;;;;;;;;;5103568;27;20039;-64
2020/12/02 05:11:39;;;;;;;29.02;21.83;;;;;;;;;;5114237;27;20493;-65
2020/12/02 05:14:35;;;;;;;31.25;21.25;;;;;;;;;;5115565;27;20726;-65
2020/12/02 05:17:24;;;;;;;27.15;19.50;;;;;;;;;;5118290;27;20035;-65
2020/12/02 05:20:21;;;;;;;28.85;21.48;;;;;;;;;;5113901;27;20031;-64
2020/12/02 05:23:17;;;;;;;27.98;21.30;;;;;;;;;;5117537;27;20038;-64
2020/12/02 05:26:16;;;;;;;29.13;21.38;;;;;;;;;;5114545;27;20066;-65
2020/12/02 05:29:08;;;;;;;31.88;21.83;;;;;;;;;;5112274;27;20035;-65
2020/12/02 05:32:06;;;;;;;36.50;21.65;;;;;;;;;;5116864;27;20035;-64
2020/12/02 05:34:52;;;;;;;30.58;20.85;;;;;;;;;;5116205;27;20545;-65
2020/12/02 05:37:44;;;;;;;28.23;21.25;;;;;;;;;;5116831;27;20046;-65
2020/12/02 05:40:32;;;;;;;29.95;22.13;;;;;;;;;;5114451;27;20078;-64
2020/12/02 05:43:38;;;;;;;30.40;20.73;;;;;;;;;;5114063;27;20039;-64
2020/12/02 05:46:42;;;;;;;28.50;21.20;;;;;;;;;;5116372;27;20027;-65
2020/12/02 05:49:43;;;;;;;29.75;22.00;;;;;;;;;;5114127;27;20147;-64
2020/12/02 05:52:37;;;;;;;27.70;19.45;;;;;;;;;;5116106;27;20050;-65
2020/12/02 05:55:32;;;;;;;30.35;19.50;;;;;;;;;;5114498;27;20083;-64
2020/12/02 05:58:30;;;;;;;25.38;19.63;;;;;;;;;;5116652;27;20070;-64
2020/12/02 06:01:17;;;;;;;26.73;19.70;;;;;;;;;;5116321;27;20478;-64
2020/12/02 06:04:08;;;;;;;24.55;19.08;;;;;;;;;;5115838;27;20031;-65
2020/12/02 06:06:56;;;;;;;24.83;18.73;;;;;;;;;;5113119;27;20031;-64
2020/12/02 06:09:44;;;;;;;22.83;18.08;;;;;;;;;;5114018;27;20489;-64
2020/12/02 06:12:40;;;;;;;29.40;17.80;;;;;;;;;;5114029;27;20057;-64
2020/12/02 06:15:33;;;;;;;24.50;18.65;;;;;;;;;;5113631;27;20030;-64
2020/12/02 06:18:27;;;;;;;26.58;19.17;;;;;;;;;;5112524;27;20137;-65
2020/12/02 06:21:31;;;;;;;28.25;18.67;;;;;;;;;;5115180;27;20031;-64
2020/12/02 06:24:43;;;;;;;24.75;18.20;;;;;;;;;;5112005;27;20456;-64
2020/12/02 06:27:29;;;;;;;25.92;18.20;;;;;;;;;;5114193;27;20111;-65
2020/12/02 06:30:18;;;;;;;23.20;16.40;;;;;;;;;;5114469;27;20046;-65
2020/12/02 06:33:14;;;;;;;23.15;17.83;;;;;;;;;;5113126;28;20031;-65
2020/12/02 06:36:09;;;;;;;27.77;18.90;;;;;;;;;;5111879;28;20539;-65
2020/12/02 06:39:10;;;;;;;25.08;17.98;;;;;;;;;;5113168;28;20054;-65
2020/12/02 06:41:55;;;;;;;23.40;16.80;;;;;;;;;;5116144;28;20039;-65
2020/12/02 06:44:57;;;;;;;26.73;18.27;;;;;;;;;;5113559;28;20028;-65
2020/12/02 06:47:49;;;;;;;25.83;17.85;;;;;;;;;;5114682;28;20080;-65
2020/12/02 06:50:35;;;;;;;24.33;17.48;;;;;;;;;;5111123;28;20110;-65
2020/12/02 06:53:21;;;;;;;26.63;18.50;;;;;;;;;;5112893;28;20039;-65
2020/12/02 06:56:16;;;;;;;29.83;18.23;;;;;;;;;;5114889;28;20288;-65
2020/12/02 06:59:04;;;;;;;25.85;17.73;;;;;;;;;;5111943;28;20039;-65
2020/12/02 07:01:51;;;;;;;26.70;19.00;;;;;;;;;;5117704;28;20048;-65
2020/12/02 07:04:37;;;;;;;28.40;18.90;;;;;;;;;;5112771;28;20039;-64
2020/12/02 07:07:23;;;;;;;28.17;19.98;;;;;;;;;;5110436;27;20043;-64
2020/12/02 07:10:20;;;;;;;30.70;19.65;;;;;;;;;;5112381;28;20447;-66
2020/12/02 07:13:06;;;;;;;27.13;18.77;;;;;;;;;;5099243;27;20372;-66
2020/12/02 07:15:51;;;;;;;26.10;19.33;;;;;;;;;;5115680;27;20044;-66
2020/12/02 07:18:37;;;;;;;31.95;18.80;;;;;;;;;;5114226;27;20039;-66
2020/12/02 07:21:33;;;;;;;31.83;20.73;;;;;;;;;;5117734;27;20032;-65
2020/12/02 07:24:39;;;;;;;33.50;25.08;;;;;;;;;;5112883;27;20070;-65
2020/12/02 07:27:25;;;;;;;41.97;29.88;;;;;;;;;;5115730;27;20027;-65
2020/12/02 07:30:37;;;;;;;27.80;21.25;;;;;;;;;;5116170;27;20032;-65
2020/12/02 07:33:27;;;;;;;26.38;20.98;;;;;;;;;;5116316;27;20042;-65
2020/12/02 07:36:16;;;;;;;33.83;21.17;;;;;;;;;;5115102;27;20043;-65
2020/12/02 07:39:20;;;;;;;30.15;21.48;;;;;;;;;;5114538;27;20031;-65
2020/12/02 07:42:19;;;;;;;30.73;22.35;;;;;;;;;;5116193;27;20116;-65
2020/12/02 07:45:16;;;;;;;29.75;21.50;;;;;;;;;;5114864;27;20040;-65
2020/12/02 07:48:07;;;;;;;29.75;21.23;;;;;;;;;;5102252;27;20027;-65
2020/12/02 07:51:18;;;;;;;31.25;22.00;;;;;;;;;;5112677;27;20044;-65
2020/12/02 07:54:14;;;;;;;30.00;21.92;;;;;;;;;;5114336;27;20035;-65
2020/12/02 07:57:02;;;;;;;37.47;22.73;;;;;;;;;;5115857;27;20035;-64
2020/12/02 08:00:05;;;;;;;28.67;21.38;;;;;;;;;;5114396;27;20032;-65
2020/12/02 08:02:52;;;;;;;33.67;21.77;;;;;;;;;;5114322;27;20031;-65
2020/12/02 08:05:53;;;;;;;31.17;21.83;;;;;;;;;;5116776;27;20110;-66
2020/12/02 08:08:39;;;;;;;30.95;21.73;;;;;;;;;;5114695;27;20031;-66
2020/12/02 08:11:25;;;;;;;30.10;20.25;;;;;;;;;;5104308;27;20035;-68
2020/12/02 08:14:19;;;;;;;28.30;20.92;;;;;;;;;;5117926;27;20027;-68
2020/12/02 08:17:12;;;;;;;32.83;21.80;;;;;;;;;;5116785;27;20038;-68
2020/12/02 08:19:59;;;;;;;31.30;22.17;;;;;;;;;;5115286;27;20035;-68
2020/12/02 08:22:49;;;;;;;29.52;21.25;;;;;;;;;;5118049;27;20032;-68
2020/12/02 08:26:01;;;;;;;30.20;21.52;;;;;;;;;;5112187;27;20035;-68
2020/12/02 08:28:51;;;;;;;33.95;21.85;;;;;;;;;;5114316;27;20106;-68
2020/12/02 08:31:37;;;;;;;31.20;23.33;;;;;;;;;;5115589;27;20032;-68
2020/12/02 08:34:23;;;;;;;33.72;24.27;;;;;;;;;;5113854;27;20039;-68
2020/12/02 08:37:38;;;;;;;37.28;27.10;;;;;;;;;;5116297;27;20069;-67
2020/12/02 08:40:30;;;;;;;41.38;27.20;;;;;;;;;;5112516;27;20039;-68
2020/12/02 08:43:23;;;;;;;31.13;23.30;;;;;;;;;;5114045;27;20112;-68
2020/12/02 08:46:14;;;;;;;36.40;25.08;;;;;;;;;;5115258;27;20704;-68
2020/12/02 08:49:02;;;;;;;41.50;25.73;;;;;;;;;;5116863;27;20510;-68
2020/12/02 08:51:48;;;;;;;31.38;23.30;;;;;;;;;;5117729;27;20622;-68
2020/12/02 08:54:34;;;;;;;32.88;23.13;;;;;;;;;;5114626;27;20539;-68
2020/12/02 08:57:19;;;;;;;36.15;26.13;;;;;;;;;;5115522;27;20058;-68
2020/12/02 09:00:05;;;;;;;30.48;23.13;;;;;;;;;;5113787;27;20085;-68
2020/12/02 09:02:51;;;;;;;28.52;23.85;;;;;;;;;;5117962;27;20043;-67
2020/12/02 09:05:36;;;;;;;32.20;24.13;;;;;;;;;;5114678;27;20028;-68
2020/12/02 09:08:22;;;;;;;30.05;22.20;;;;;;;;;;5114865;27;20039;-68
2020/12/02 09:11:08;;;;;;;29.08;22.77;;;;;;;;;;5115284;27;20035;-68
2020/12/02 09:13:54;;;;;;;30.23;22.13;;;;;;;;;;5115278;27;20062;-68
2020/12/02 09:16:40;;;;;;;30.38;22.85;;;;;;;;;;5116151;27;20093;-68
2020/12/02 09:19:26;;;;;;;29.73;21.48;;;;;;;;;;5114085;27;20147;-67
2020/12/02 09:22:11;;;;;;;31.45;22.00;;;;;;;;;;5115383;27;20031;-67
2020/12/02 09:24:57;;;;;;;30.05;20.88;;;;;;;;;;5113763;27;20031;-68
2020/12/02 09:27:44;;;;;;;29.52;21.63;;;;;;;;;;5115319;27;20088;-68
2020/12/02 09:30:29;;;;;;;25.98;19.70;;;;;;;;;;5113159;27;20402;-67
2020/12/02 09:33:15;;;;;;;29.90;21.55;;;;;;;;;;5115014;27;20110;-67
2020/12/02 09:36:01;;;;;;;34.05;22.50;;;;;;;;;;5112542;27;20039;-67
2020/12/02 09:38:48;;;;;;;29.38;21.45;;;;;;;;;;5112408;27;20032;-67
2020/12/02 09:41:51;;;;;;;26.92;20.15;;;;;;;;;;5113729;27;20043;-67
2020/12/02 09:44:48;;;;;;;26.48;20.20;;;;;;;;;;5113278;27;20031;-67
2020/12/02 09:47:35;;;;;;;32.47;22.05;;;;;;;;;;5113996;27;20121;-67
2020/12/02 09:50:21;;;;;;;37.47;20.55;;;;;;;;;;5112702;27;20114;-67
2020/12/02 09:53:16;;;;;;;30.83;19.50;;;;;;;;;;5112836;27;20085;-66
2020/12/02 09:56:04;;;;;;;31.52;19.75;;;;;;;;;;5112719;27;20030;-66
2020/12/02 09:58:50;;;;;;;38.28;20.75;;;;;;;;;;5117637;27;20039;-67
2020/12/02 10:01:47;;;;;;;38.92;21.10;;;;;;;;;;5114254;27;20027;-68
2020/12/02 10:04:54;;;;;;;44.45;21.40;;;;;;;;;;5112523;27;20457;-68
2020/12/02 10:08:15;;;;;;;31.33;20.55;;;;;;;;;;5114354;27;20039;-68
2020/12/02 10:11:12;;;;;;;30.03;18.63;;;;;;;;;;5114867;27;20530;-67
2020/12/02 10:14:23;;;;;;;29.10;19.67;;;;;;;;;;5114715;27;20256;-69
2020/12/02 10:17:47;;;;;;;31.98;20.48;;;;;;;;;;5111381;27;20035;-66
2020/12/02 10:20:44;;;;;;;28.70;20.15;;;;;;;;;;5109728;27;20039;-66
2020/12/02 10:23:37;;;;;;;26.48;20.75;;;;;;;;;;5112397;27;20104;-67
2020/12/02 10:26:42;;;;;;;31.40;21.48;;;;;;;;;;5112564;27;20024;-67
2020/12/02 10:29:35;;;;;;;26.73;20.48;;;;;;;;;;5109358;27;20042;-67
2020/12/02 10:32:32;;;;;;;30.38;20.65;;;;;;;;;;5111884;27;20035;-68
2020/12/02 10:35:18;;;;;;;30.25;20.80;;;;;;;;;;5113919;27;20071;-68
2020/12/02 10:38:10;;;;;;;27.60;20.75;;;;;;;;;;5112789;27;20335;-67
2020/12/02 10:41:04;;;;;;;27.75;20.00;;;;;;;;;;5111244;27;20063;-67
2020/12/02 10:44:05;;;;;;;27.27;19.40;;;;;;;;;;5113487;27;20039;-67
2020/12/02 10:47:15;;;;;;;30.88;20.48;;;;;;;;;;5117080;28;20269;-67
2020/12/02 10:50:00;;;;;;;28.45;21.65;;;;;;;;;;5113441;28;20027;-67
2020/12/02 10:52:49;;;;;;;31.48;21.45;;;;;;;;;;5095072;27;20092;-66
2020/12/02 10:55:36;;;;;;;29.88;19.98;;;;;;;;;;5111203;28;20031;-66
2020/12/02 10:58:29;;;;;;;24.83;19.02;;;;;;;;;;5095832;28;20807;-66
2020/12/02 11:01:14;;;;;;;32.80;25.65;;;;;;;;;;5112960;28;20226;-67
2020/12/02 11:04:00;;;;;;;31.60;24.38;;;;;;;;;;5112975;28;20051;-66
2020/12/02 11:07:08;;;;;;;34.85;22.10;;;;;;;;;;5116058;28;20032;-67
2020/12/02 11:09:56;;;;;;;44.03;24.63;;;;;;;;;;5111417;27;20089;-69
2020/12/02 11:13:11;;;;;;;30.65;20.63;;;;;;;;;;5116380;28;20035;-67
2020/12/02 11:16:07;;;;;;;33.33;21.08;;;;;;;;;;5111115;27;20038;-68
2020/12/02 11:18:53;;;;;;;30.48;22.45;;;;;;;;;;5112277;28;20046;-67
2020/12/02 11:22:04;;;;;;;32.70;20.65;;;;;;;;;;5109662;28;20046;-67
2020/12/02 11:25:02;;;;;;;35.17;20.10;;;;;;;;;;5114060;28;20198;-67
2020/12/02 11:27:48;;;;;;;30.25;20.50;;;;;;;;;;5116928;28;20042;-67
2020/12/02 11:30:39;;;;;;;27.77;20.02;;;;;;;;;;5110349;28;20093;-66
2020/12/02 11:33:39;;;;;;;;;;;;;;;;;;5110726;27;20672;-67
2020/12/02 11:36:43;;;;;;;27.77;19.67;;;;;;;;;;5112596;28;20025;-66
2020/12/02 11:39:38;;;;;;;28.75;20.63;;;;;;;;;;5111256;28;20039;-66
2020/12/02 11:42:51;;;;;;;28.08;20.55;;;;;;;;;;5112189;28;20023;-66
2020/12/02 11:45:41;;;;;;;39.30;21.75;;;;;;;;;;5110324;28;20051;-67
2020/12/02 11:48:42;;;;;;;31.05;20.88;;;;;;;;;;5109507;27;20078;-67
2020/12/02 11:52:02;;;;;;;25.88;19.70;;;;;;;;;;5111413;28;20047;-67
2020/12/02 11:54:54;;;;;;;48.53;35.80;;;;;;;;;;5073854;28;20042;-66
2020/12/02 11:57:49;;;;;;;37.72;27.15;;;;;;;;;;5113271;28;20050;-66
2020/12/02 12:00:34;;;;;;;29.17;20.48;;;;;;;;;;5114751;27;20035;-66
2020/12/02 12:03:54;;;;;;;29.27;20.00;;;;;;;;;;5118733;27;20039;-67
2020/12/02 12:06:41;;;;;;;30.42;19.98;;;;;;;;;;5112843;27;20038;-66
2020/12/02 12:09:34;;;;;;;28.65;20.83;;;;;;;;;;5112686;27;20031;-68
2020/12/02 12:12:46;;;;;;;28.38;21.25;;;;;;;;;;5115884;27;20499;-68
2020/12/02 12:15:59;;;;;;;29.23;20.65;;;;;;;;;;5084974;27;20043;-69
2020/12/02 12:19:04;;;;;;;25.55;20.70;;;;;;;;;;5113756;27;20039;-68
2020/12/02 12:22:07;;;;;;;27.33;19.35;;;;;;;;;;5117348;27;20042;-68
2020/12/02 12:25:02;;;;;;;31.60;22.17;;;;;;;;;;5115636;27;20066;-68
2020/12/02 12:27:50;;;;;;;26.42;19.20;;;;;;;;;;5112912;27;20092;-69
2020/12/02 12:30:36;;;;;;;24.55;17.98;;;;;;;;;;5105695;27;20058;-68
2020/12/02 12:33:27;;;;;;;26.92;19.10;;;;;;;;;;5117977;27;20114;-69
2020/12/02 12:36:22;;;;;;;;;;;;;;;;;;5117637;27;20420;-69
2020/12/02 12:39:26;;;;;;;24.35;17.25;;;;;;;;;;5120072;27;19934;-66
2020/12/02 12:42:16;;;;;;;25.83;18.67;;;;;;;;;;5106261;27;20032;-68
2020/12/02 12:45:03;;;;;;;24.38;18.88;;;;;;;;;;5119538;27;20779;-65
2020/12/02 12:47:53;;;;;;;27.48;18.48;;;;;;;;;;5113536;27;20408;-68
2020/12/02 12:50:42;;;;;;;28.20;18.05;;;;;;;;;;5102064;27;20096;-66
2020/12/02 12:53:27;;;;;;;26.25;19.02;;;;;;;;;;5112472;27;20031;-69
2020/12/02 12:56:14;;;;;;;26.80;18.80;;;;;;;;;;5099958;27;20050;-68
2020/12/02 12:59:00;;;;;;;23.73;17.75;;;;;;;;;;5111677;27;20046;-67
2020/12/02 13:01:51;;;;;;;22.85;18.40;;;;;;;;;;5110640;27;20480;-66
2020/12/02 13:04:37;;;;;;;25.88;19.75;;;;;;;;;;5112828;27;20035;-66
2020/12/02 13:07:28;;;;;;;24.42;18.35;;;;;;;;;;5117369;27;20050;-65
2020/12/02 13:10:22;;;;;;;;;;;;;;;;;;5113141;27;20032;-67
2020/12/02 13:13:30;;;;;;;24.20;18.33;;;;;;;;;;5116461;27;19973;-67
2020/12/02 13:17:01;;;;;;;29.83;20.00;;;;;;;;;;5097637;27;20100;-67
2020/12/02 13:20:02;;;;;;;25.48;18.83;;;;;;;;;;5055361;27;20055;-66
2020/12/02 13:22:56;;;;;;;25.42;20.48;;;;;;;;;;5115013;27;20043;-67
2020/12/02 13:25:55;;;;;;;29.63;19.73;;;;;;;;;;5108861;27;20655;-68
2020/12/02 13:28:49;;;;;;;23.55;18.33;;;;;;;;;;5110377;27;20471;-68
2020/12/02 13:31:54;;;;;;;26.42;20.23;;;;;;;;;;5111624;27;20035;-67
2020/12/02 13:34:40;;;;;;;26.63;21.40;;;;;;;;;;5113937;27;20042;-67
2020/12/02 13:37:26;;;;;;;28.17;19.65;;;;;;;;;;5113750;27;20054;-67
2020/12/02 13:40:12;;;;;;;29.65;21.60;;;;;;;;;;5100767;27;20039;-67
2020/12/02 13:42:58;;;;;;;24.48;19.40;;;;;;;;;;5115107;27;20171;-68
2020/12/02 13:45:47;;;;;;;26.52;19.05;;;;;;;;;;5096956;27;20036;-68
2020/12/02 13:48:33;;;;;;;25.55;20.50;;;;;;;;;;5104605;27;20023;-67
2020/12/02 13:51:29;;;;;;;84.63;46.92;;;;;;;;;;5108083;27;20039;-68
2020/12/02 13:54:41;;;;;;;56.80;36.55;;;;;;;;;;5114703;27;20357;-67
2020/12/02 13:57:47;;;;;;;45.97;25.25;;;;;;;;;;5085211;27;20494;-67
2020/12/02 14:00:59;;;;;;;42.72;27.92;;;;;;;;;;5110654;27;20104;-66
2020/12/02 14:03:45;;;;;;;212.70;148.48;;;;;;;;;;5107575;27;20470;-66
2020/12/02 14:06:52;;;;;;;64.47;52.55;;;;;;;;;;5112220;27;20059;-66
2020/12/02 14:09:44;;;;;;;51.65;41.38;;;;;;;;;;5111999;27;20036;-65
2020/12/02 14:12:32;;;;;;;110.30;82.43;;;;;;;;;;5114661;27;20138;-65
2020/12/02 14:15:22;;;;;;;91.68;72.22;;;;;;;;;;5114657;27;20030;-65
2020/12/02 14:18:11;;;;;;;31.83;24.73;;;;;;;;;;5116957;27;20035;-65
2020/12/02 14:20:57;;;;;;;30.83;20.30;;;;;;;;;;5108885;27;20048;-65
2020/12/02 14:23:43;;;;;;;31.73;19.45;;;;;;;;;;5112665;27;20038;-66
2020/12/02 14:26:29;;;;;;;22.73;16.83;;;;;;;;;;5110604;27;20854;-67
2020/12/02 14:29:15;;;;;;;23.70;17.42;;;;;;;;;;5111479;27;20643;-66
2020/12/02 14:32:00;;;;;;;23.45;15.93;;;;;;;;;;5115306;27;20031;-65
2020/12/02 14:34:46;;;;;;;25.58;17.45;;;;;;;;;;5105589;27;20035;-65
2020/12/02 14:37:32;;;;;;;25.77;18.90;;;;;;;;;;5110947;27;20046;-65
2020/12/02 14:40:17;;;;;;;22.70;17.27;;;;;;;;;;5113710;27;20059;-66
2020/12/02 14:43:11;;;;;;;26.30;19.42;;;;;;;;;;5098625;28;20046;-65
2020/12/02 14:45:58;;;;;;;24.45;15.98;;;;;;;;;;5113000;28;20054;-66
2020/12/02 14:48:44;;;;;;;22.45;16.67;;;;;;;;;;5114086;28;20055;-65
2020/12/02 14:51:31;;;;;;;20.58;17.33;;;;;;;;;;5107025;28;20511;-66
2020/12/02 14:54:18;;;;;;;28.85;17.50;;;;;;;;;;5114259;28;20491;-65
2020/12/02 14:57:29;;;;;;;22.75;17.85;;;;;;;;;;5113845;28;20328;-66
2020/12/02 15:00:17;;;;;;;23.88;17.25;;;;;;;;;;5097660;28;20517;-66
2020/12/02 15:03:03;;;;;;;22.15;17.05;;;;;;;;;;5112539;28;20407;-67
2020/12/02 15:05:48;;;;;;;29.35;18.35;;;;;;;;;;5113757;28;20097;-66
2020/12/02 15:08:37;;;;;;;26.35;19.20;;;;;;;;;;5109767;28;20512;-66
2020/12/02 15:11:39;;;;;;;28.77;20.90;;;;;;;;;;5110350;28;20034;-65
2020/12/02 15:14:26;;;;;;;29.33;20.08;;;;;;;;;;5107487;28;20046;-65
2020/12/02 15:17:12;;;;;;;22.13;17.85;;;;;;;;;;5112881;28;20662;-66
2020/12/02 15:19:59;;;;;;;25.42;20.63;;;;;;;;;;5116470;28;20037;-65
2020/12/02 15:22:45;;;;;;;28.65;20.35;;;;;;;;;;5113185;28;20476;-66
2020/12/02 15:25:31;;;;;;;27.63;21.40;;;;;;;;;;5108526;28;20055;-66
2020/12/02 15:28:24;;;;;;;29.05;22.02;;;;;;;;;;5111008;28;20027;-66
2020/12/02 15:31:16;;;;;;;29.88;20.92;;;;;;;;;;5112465;28;20039;-66
2020/12/02 15:34:04;;;;;;;27.95;19.15;;;;;;;;;;5114665;27;20031;-66
2020/12/02 15:37:00;;;;;;;26.10;18.08;;;;;;;;;;5117612;27;20070;-66
2020/12/02 15:39:59;;;;;;;24.05;19.20;;;;;;;;;;5110553;27;20149;-67
2020/12/02 15:43:13;;;;;;;29.63;21.58;;;;;;;;;;5114087;27;20043;-67
2020/12/02 15:46:19;;;;;;;32.13;22.25;;;;;;;;;;5109035;27;20039;-68
2020/12/02 15:49:10;;;;;;;32.95;23.77;;;;;;;;;;5116147;27;20424;-67
2020/12/02 15:52:02;;;;;;;;;;;;;;;;;;5113032;27;20035;-67
2020/12/02 15:55:02;;;;;;;34.65;20.83;;;;;;;;;;5113510;27;19912;-67
2020/12/02 15:58:13;;;;;;;24.52;19.13;;;;;;;;;;5115707;27;20039;-67
2020/12/02 16:01:00;;;;;;;22.15;18.05;;;;;;;;;;5111726;27;20039;-67
2020/12/02 16:03:46;;;;;;;28.52;21.13;;;;;;;;;;5117314;27;20808;-66
2020/12/02 16:06:35;;;;;;;24.73;18.52;;;;;;;;;;5111924;27;20192;-66
2020/12/02 16:09:21;;;;;;;30.02;23.70;;;;;;;;;;5114809;27;20117;-65
2020/12/02 16:12:11;;;;;;;25.98;21.20;;;;;;;;;;5109751;27;20116;-65
2020/12/02 16:15:12;;;;;;;23.58;18.50;;;;;;;;;;5113486;27;20120;-66
2020/12/02 16:17:58;;;;;;;25.58;17.98;;;;;;;;;;5115436;27;20039;-66
2020/12/02 16:20:44;;;;;;;24.20;17.13;;;;;;;;;;5115172;27;20031;-65
2020/12/02 16:23:33;;;;;;;23.40;18.48;;;;;;;;;;5113274;27;20046;-65
2020/12/02 16:26:19;;;;;;;27.95;20.40;;;;;;;;;;5111512;27;20646;-66
2020/12/02 16:29:05;;;;;;;27.67;19.75;;;;;;;;;;5112611;27;20038;-66
2020/12/02 16:31:52;;;;;;;26.73;19.40;;;;;;;;;;5116265;27;20035;-66
2020/12/02 16:34:37;;;;;;;26.20;19.40;;;;;;;;;;5115090;27;20050;-66
2020/12/02 16:37:33;;;;;;;25.17;19.17;;;;;;;;;;5113776;27;20035;-66
2020/12/02 16:40:19;;;;;;;23.92;18.60;;;;;;;;;;5110779;27;20046;-66
2020/12/02 16:43:18;;;;;;;24.42;19.27;;;;;;;;;;5114261;27;20074;-66